Wah Cantt Weather



Wah Cantt's Current Weather

Temprature 25.36o scattered clouds

scattered clouds

Rain: 0 %

Min Temprature25.36o
Max Temprature25.36o
Humidity64
Wind Speed1.18 m/h
Sun Rise05:59:36
Sun Set18:01:29
Current Time: 26-Sep-2022 08:41:55
Lat/Lon: 33.7875, 72.7265




Wah Cantt's Geo Location



Wah Cantt's Weather Forecast

Time Overall Temp Min Temp Max Temp Humidity Wind Speed Rain
26-Sep-2022 (Mon)
11:00:00 scattered clouds 26.080 26.080 27.530 66 1.56 m/h 0 %
14:00:00 few clouds 28.370 28.370 29.870 55 2.16 m/h 0 %
17:00:00 clear sky 29.320 29.320 29.320 53 1.31 m/h 0 %
20:00:00 clear sky 25.760 25.760 25.760 63 1.17 m/h 0 %
23:00:00 clear sky 24.350 24.350 24.350 67 1.82 m/h 0 %
27-Sep-2022 (Tue)
02:00:00 clear sky 23.480 23.480 23.480 68 1.59 m/h 0 %
05:00:00 clear sky 22.900 22.900 22.900 68 1.91 m/h 0 %
08:00:00 clear sky 25.550 25.550 25.550 60 1.31 m/h 0 %
11:00:00 clear sky 29.340 29.340 29.340 49 1.11 m/h 0 %
14:00:00 clear sky 31.370 31.370 31.370 42 1.23 m/h 0 %
17:00:00 clear sky 31.150 31.150 31.150 47 0.55 m/h 0 %
20:00:00 clear sky 26.900 26.900 26.900 56 2.29 m/h 0 %
23:00:00 clear sky 25.450 25.450 25.450 61 2.94 m/h 0 %
28-Sep-2022 (Wed)
02:00:00 clear sky 24.450 24.450 24.450 64 2.37 m/h 0 %
05:00:00 clear sky 23.670 23.670 23.670 66 2.43 m/h 0 %
08:00:00 clear sky 25.990 25.990 25.990 60 2.01 m/h 0 %
11:00:00 clear sky 30.060 30.060 30.060 49 1.79 m/h 0 %
14:00:00 clear sky 31.910 31.910 31.910 41 1.29 m/h 0 %
17:00:00 clear sky 31.800 31.800 31.800 46 0.45 m/h 0 %
20:00:00 few clouds 27.520 27.520 27.520 53 2.52 m/h 0 %
23:00:00 clear sky 25.870 25.870 25.870 59 2.88 m/h 0 %
29-Sep-2022 (Thu)
02:00:00 light rain 24.110 24.110 24.110 65 2.22 m/h 54 %
05:00:00 light rain 22.210 22.210 22.210 70 1.01 m/h 72 %
08:00:00 light rain 24.480 24.480 24.480 61 1.46 m/h 168 %
11:00:00 light rain 29.120 29.120 29.120 46 0.79 m/h 28 %
14:00:00 clear sky 31.670 31.670 31.670 40 1.05 m/h 0 %
17:00:00 clear sky 31.220 31.220 31.220 47 1.18 m/h 0 %
20:00:00 clear sky 26.930 26.930 26.930 54 2.25 m/h 0 %
23:00:00 clear sky 25.580 25.580 25.580 57 2.66 m/h 0 %
30-Sep-2022 (Fri)
02:00:00 clear sky 24.410 24.410 24.410 59 2.17 m/h 0 %
05:00:00 clear sky 23.380 23.380 23.380 59 0.49 m/h 0 %
08:00:00 few clouds 25.860 25.860 25.860 53 1.69 m/h 0 %
11:00:00 clear sky 30.400 30.400 30.400 42 0.12 m/h 0 %
14:00:00 clear sky 32.550 32.550 32.550 36 1.4 m/h 0 %
17:00:00 clear sky 31.890 31.890 31.890 43 0.41 m/h 0 %
20:00:00 clear sky 27.450 27.450 27.450 49 2.45 m/h 0 %
23:00:00 clear sky 25.980 25.980 25.980 53 2.41 m/h 0 %
01-Oct-2022 (Sat)
02:00:00 scattered clouds 24.970 24.970 24.970 55 1.95 m/h 0 %
05:00:00 broken clouds 25.350 25.350 25.350 53 1.01 m/h 0 %
08:00:00 few clouds 26.790 26.790 26.790 50 1.68 m/h 0 %

Famous Cities (61)